CheckWX is a tool to help pilots better visualize weather data.  It is not intended as a substitute for an official pre-flight weather briefing.

12:32:04 UTC

KMFD METAR
Mansfield Lahm Regional Airport
Mansfield, Ohio, USA
Current

40 mins ago

KMFD 221152Z 01005KT 6SM BR CLR M02/M04 A3036 RMK AO2 SLP293 T10221044 10000 21022 53016 $
Observed
Feb-22 @ 11:52 UTC
Wind
  • 010° at 5 KTS
Visibility
6 SM
Flight Rules
VFR
Conditions
Mist
Cloud Levels
  • Clear skies
Temperature
-2°C / 28°F
Dewpoint
-4°C / 25°F
Humidity
86%
Altimeter
30.36" Hg
Pressure
1029.3 hPa
Previous

2 hours ago

KMFD 221052Z 36006KT 6SM HZ CLR M02/M04 A3033 RMK AO2 SLP285 T10171044 $
Observed
Feb-22 @ 10:52 UTC
Wind
  • 360° at 6 KTS
Visibility
6 SM
Flight Rules
VFR
Conditions
Haze
Cloud Levels
  • Clear skies
Temperature
-2°C / 28°F
Dewpoint
-4°C / 25°F
Humidity
86%
Altimeter
30.33" Hg
Pressure
1028.5 hPa
Previous

3 hours ago

KMFD 220952Z AUTO 34006KT 6SM BR CLR M02/M03 A3030 RMK AO2 SLP274 T10171033 $
Observed
Feb-22 @ 09:52 UTC
Wind
  • 340° at 6 KTS
Visibility
6 SM
Flight Rules
VFR
Conditions
Mist
Cloud Levels
  • Clear skies
Temperature
-2°C / 28°F
Dewpoint
-3°C / 27°F
Humidity
93%
Altimeter
30.3" Hg
Pressure
1027.4 hPa